createdAt,value
2023-02-17T00:01:38.080Z,101146.66
2023-02-17T00:04:06.677Z,101148.31
2023-02-17T00:06:34.984Z,101143.38
2023-02-17T00:09:04.811Z,101138.22
2023-02-17T00:11:33.391Z,101137.94
2023-02-17T00:14:02.192Z,101133.31
2023-02-17T00:16:30.781Z,101132.19
2023-02-17T00:19:00.755Z,101133.03
2023-02-17T00:21:30.647Z,101132.19
2023-02-17T00:24:00.000Z,101132.50
2023-02-17T00:26:29.862Z,101128.69
2023-02-17T00:28:59.562Z,101135.78
2023-02-17T00:31:28.140Z,101120.78
2023-02-17T00:33:57.008Z,101127.59
2023-02-17T00:36:26.881Z,101109.31
2023-02-17T00:38:57.286Z,101116.13
2023-02-17T00:41:26.463Z,101116.94
2023-02-17T00:43:56.202Z,101112.84
2023-02-17T00:46:25.585Z,101122.09
2023-02-17T00:48:54.290Z,101118.28
2023-02-17T00:51:22.875Z,101104.09
2023-02-17T00:53:52.090Z,101105.50
2023-02-17T00:56:20.671Z,101105.75
2023-02-17T00:58:48.967Z,101110.38
2023-02-17T01:01:18.736Z,101107.97
2023-02-17T01:03:47.436Z,101105.78
2023-02-17T01:06:23.290Z,101095.94
2023-02-17T01:08:51.853Z,101090.47
2023-02-17T01:11:21.596Z,101082.84
2023-02-17T01:13:49.987Z,101080.38
2023-02-17T01:16:22.574Z,101089.38
2023-02-17T01:18:51.164Z,101085.03
2023-02-17T01:21:20.737Z,101086.94
2023-02-17T01:23:50.617Z,101081.75
2023-02-17T01:26:21.480Z,101071.94
2023-02-17T01:28:50.552Z,101083.09
2023-02-17T01:31:22.010Z,101076.84
2023-02-17T01:33:50.749Z,101068.09
2023-02-17T01:36:20.218Z,101052.28
2023-02-17T01:38:49.454Z,101054.47
2023-02-17T01:41:20.254Z,101055.00
2023-02-17T01:44:14.142Z,101060.47
2023-02-17T01:46:45.638Z,101048.19
2023-02-17T01:49:21.128Z,101046.00
2023-02-17T01:51:53.931Z,101045.72
2023-02-17T01:54:27.840Z,101041.66
2023-02-17T01:56:58.284Z,101046.56
2023-02-17T01:59:26.788Z,101047.09
2023-02-17T02:01:59.722Z,101033.72
2023-02-17T02:04:32.784Z,101040.28
2023-02-17T02:07:02.083Z,101038.91
2023-02-17T02:09:33.534Z,101044.63
2023-02-17T02:12:02.033Z,101047.09
2023-02-17T02:14:30.707Z,101039.19
2023-02-17T02:17:09.831Z,101040.00
2023-02-17T02:20:01.887Z,101049.81
2023-02-17T02:22:47.372Z,101040.28
2023-02-17T02:25:32.641Z,101044.06
2023-02-17T02:28:15.646Z,101049.00
2023-02-17T02:31:00.825Z,101041.38
2023-02-17T02:33:37.400Z,101034.81
2023-02-17T02:36:12.882Z,101035.91
2023-02-17T02:38:44.293Z,101035.09
2023-02-17T02:41:16.869Z,101024.44
2023-02-17T02:43:45.379Z,101013.00
2023-02-17T02:46:13.847Z,101007.75
2023-02-17T02:48:44.232Z,100993.28
2023-02-17T02:51:36.535Z,100985.94
2023-02-17T02:54:17.337Z,100987.00
2023-02-17T02:56:57.674Z,100988.38
2023-02-17T02:59:35.689Z,100987.88
2023-02-17T03:02:12.804Z,100969.88
2023-02-17T03:04:51.470Z,100976.97
2023-02-17T03:07:24.245Z,100994.44
2023-02-17T03:09:55.149Z,100983.53
2023-02-17T03:12:24.594Z,100989.81
2023-02-17T03:14:59.234Z,100999.06
2023-02-17T03:17:31.243Z,100998.81
2023-02-17T03:20:02.290Z,100987.06
2023-02-17T03:22:35.215Z,100988.44
2023-02-17T03:25:04.585Z,100985.44
2023-02-17T03:27:32.961Z,100978.56
2023-02-17T03:30:01.464Z,100974.19
2023-02-17T03:32:29.922Z,100976.38
2023-02-17T03:34:58.218Z,100980.19
2023-02-17T03:37:28.153Z,100979.66
2023-02-17T03:39:56.692Z,100988.09
2023-02-17T03:42:25.135Z,100994.38
2023-02-17T03:44:53.892Z,100989.19
2023-02-17T03:47:22.234Z,100990.03
2023-02-17T03:49:51.758Z,100993.84
2023-02-17T03:52:20.476Z,100986.16
2023-02-17T03:54:50.354Z,100985.06
2023-02-17T03:57:18.718Z,100994.34
2023-02-17T03:59:47.126Z,100999.00
2023-02-17T04:02:15.681Z,100985.91
2023-02-17T04:04:44.028Z,100989.97
2023-02-17T04:07:12.401Z,100985.63
2023-02-17T04:09:40.727Z,100994.09
2023-02-17T04:12:10.385Z,100981.78
2023-02-17T04:14:38.853Z,101004.16
2023-02-17T04:17:07.223Z,100994.06
2023-02-17T04:19:35.527Z,100982.25
2023-02-17T04:22:04.734Z,100981.66
2023-02-17T04:24:33.100Z,100990.41
2023-02-17T04:27:01.621Z,100988.31
2023-02-17T04:29:31.358Z,100973.56
2023-02-17T04:31:59.833Z,100963.13
2023-02-17T04:34:28.242Z,100958.19
2023-02-17T04:36:56.594Z,100956.28
2023-02-17T04:39:25.074Z,100959.22
2023-02-17T04:41:53.373Z,100956.00
2023-02-17T04:44:21.731Z,100957.88
2023-02-17T04:46:51.389Z,100959.78
2023-02-17T04:49:19.838Z,100956.50
2023-02-17T04:51:48.312Z,100958.69
2023-02-17T04:54:17.437Z,100952.13
2023-02-17T04:56:45.824Z,100963.00
2023-02-17T04:59:14.125Z,100958.94
2023-02-17T05:01:42.583Z,100958.13
2023-02-17T05:04:12.592Z,100943.94
2023-02-17T05:06:40.970Z,100960.34
2023-02-17T05:09:09.306Z,100983.25
2023-02-17T05:11:37.626Z,100980.25
2023-02-17T05:14:05.940Z,100971.66
2023-02-17T05:16:34.463Z,100963.78
2023-02-17T05:19:02.889Z,100968.09
2023-02-17T05:21:32.772Z,100966.19
2023-02-17T05:24:01.177Z,100972.69
2023-02-17T05:26:29.788Z,100953.28
2023-02-17T05:28:58.254Z,100958.47
2023-02-17T05:31:26.694Z,100946.09
2023-02-17T05:33:55.191Z,100940.31
2023-02-17T05:36:23.610Z,100937.03
2023-02-17T05:38:53.322Z,100949.06
2023-02-17T05:41:22.303Z,100952.31
2023-02-17T05:43:50.700Z,100958.34
2023-02-17T05:46:19.099Z,100949.56
2023-02-17T05:48:48.467Z,100950.06
2023-02-17T05:51:17.535Z,100941.84
2023-02-17T05:53:46.175Z,100932.88
2023-02-17T05:56:15.984Z,100935.56
2023-02-17T05:58:44.471Z,100932.56
2023-02-17T06:01:13.648Z,100930.41
2023-02-17T06:03:42.058Z,100924.66
2023-02-17T06:06:11.594Z,100932.56
2023-02-17T06:08:41.510Z,100936.72
2023-02-17T06:11:09.920Z,100928.22
2023-02-17T06:13:39.732Z,100926.84
2023-02-17T06:16:08.527Z,100934.19
2023-02-17T06:18:37.316Z,100918.13
2023-02-17T06:21:06.186Z,100933.66
2023-02-17T06:23:34.570Z,100925.53
2023-02-17T06:26:02.928Z,100950.34
2023-02-17T06:28:31.264Z,100930.41
2023-02-17T06:31:01.288Z,100925.47
2023-02-17T06:33:29.654Z,100933.69
2023-02-17T06:35:58.124Z,100939.69
2023-02-17T06:38:26.536Z,100935.56
2023-02-17T06:40:55.506Z,100944.56
2023-02-17T06:43:23.973Z,100949.78
2023-02-17T06:45:52.412Z,100920.56
2023-02-17T06:48:22.178Z,100932.00
2023-02-17T06:50:51.017Z,100927.38
2023-02-17T06:53:19.372Z,100920.00
2023-02-17T06:55:47.890Z,100925.53
2023-02-17T06:58:16.309Z,100932.22
2023-02-17T07:00:44.841Z,100946.50
2023-02-17T07:03:13.366Z,100941.66
2023-02-17T07:05:43.263Z,100940.63
2023-02-17T07:08:11.776Z,100949.91
2023-02-17T07:10:40.243Z,100944.19
2023-02-17T07:13:08.662Z,100937.66
2023-02-17T07:15:37.175Z,100924.28
2023-02-17T07:18:06.180Z,100944.75
2023-02-17T07:20:34.819Z,100951.56
2023-02-17T07:23:04.480Z,100949.41
2023-02-17T07:25:33.195Z,100944.75
2023-02-17T07:28:01.551Z,100947.50
2023-02-17T07:30:30.101Z,100945.06
2023-02-17T07:32:58.647Z,100948.34
2023-02-17T07:35:27.263Z,100951.28
2023-02-17T07:37:57.945Z,100945.56
2023-02-17T07:40:28.507Z,100943.28
2023-02-17T07:42:58.053Z,100938.34
2023-02-17T07:45:27.611Z,100946.50
2023-02-17T07:47:56.028Z,100940.19
2023-02-17T07:50:25.789Z,100931.44
2023-02-17T07:52:54.129Z,100931.69
2023-02-17T07:55:22.485Z,100922.91
2023-02-17T07:57:54.602Z,100922.84
2023-02-17T08:00:23.427Z,100928.81
2023-02-17T08:02:51.749Z,100935.34
2023-02-17T08:05:20.147Z,100936.97
2023-02-17T08:07:48.460Z,100926.56
2023-02-17T08:10:34.486Z,100922.41
2023-02-17T08:13:22.686Z,100919.38
2023-02-17T08:15:51.208Z,100928.84
2023-02-17T08:18:19.703Z,100926.88
2023-02-17T08:20:48.325Z,100934.03
2023-02-17T08:23:16.768Z,100916.53
2023-02-17T08:25:45.227Z,100917.63
2023-02-17T08:28:15.040Z,100911.00
2023-02-17T08:30:43.445Z,100911.28
2023-02-17T08:33:11.826Z,100919.44
2023-02-17T08:35:40.897Z,100909.84
2023-02-17T08:38:10.285Z,100912.53
2023-02-17T08:40:39.193Z,100903.22
2023-02-17T08:43:08.477Z,100910.53
2023-02-17T08:45:38.549Z,100903.31
2023-02-17T08:48:07.048Z,100911.25
2023-02-17T08:50:35.366Z,100921.66
2023-02-17T08:53:05.526Z,100920.22
2023-02-17T08:55:48.361Z,100900.41
2023-02-17T08:58:17.901Z,100908.94
2023-02-17T09:00:47.620Z,100920.41
2023-02-17T09:03:16.244Z,100927.50
2023-02-17T09:05:44.725Z,100920.84
2023-02-17T09:08:13.161Z,100930.84
2023-02-17T09:10:41.666Z,100911.47
2023-02-17T09:13:09.963Z,100909.25
2023-02-17T09:15:38.424Z,100908.91
2023-02-17T09:18:08.195Z,100904.16
2023-02-17T09:20:37.613Z,100907.72
2023-02-17T09:23:06.588Z,100907.84
2023-02-17T09:25:37.070Z,100922.28
2023-02-17T09:28:06.288Z,100918.69
2023-02-17T09:30:34.709Z,100915.75
2023-02-17T09:33:05.191Z,100914.81
2023-02-17T09:35:35.630Z,100922.59
2023-02-17T09:38:04.207Z,100937.72
2023-02-17T09:40:40.022Z,100935.47
2023-02-17T09:43:14.683Z,100948.47
2023-02-17T09:45:47.910Z,100959.47
2023-02-17T09:48:20.249Z,100970.28
2023-02-17T09:50:55.483Z,100966.13
2023-02-17T09:53:31.625Z,100956.81
2023-02-17T09:56:04.331Z,100953.06
2023-02-17T09:58:37.967Z,100977.88
2023-02-17T10:01:12.147Z,100960.31
2023-02-17T10:03:44.517Z,100970.03
2023-02-17T10:06:18.101Z,100975.72
2023-02-17T10:08:51.802Z,100971.47
2023-02-17T10:11:30.853Z,100966.59
2023-02-17T10:14:04.230Z,100967.56
2023-02-17T10:16:37.508Z,100975.31
2023-02-17T10:19:13.579Z,100981.72
2023-02-17T10:21:47.091Z,100975.19
2023-02-17T10:24:15.502Z,100977.06
2023-02-17T10:27:01.045Z,100992.59
2023-02-17T10:29:38.444Z,100977.06
2023-02-17T10:32:22.293Z,100975.03
2023-02-17T10:35:04.838Z,100957.28
2023-02-17T10:37:46.049Z,100950.44
2023-02-17T10:40:19.023Z,100931.97
2023-02-17T10:42:50.728Z,100946.72
2023-02-17T10:45:27.162Z,100939.91
2023-02-17T10:48:03.417Z,100943.81
2023-02-17T10:50:32.425Z,100951.34
2023-02-17T10:53:02.141Z,100935.91
2023-02-17T10:55:38.558Z,100934.47
2023-02-17T10:58:14.269Z,100925.75
2023-02-17T11:00:43.512Z,100910.13
2023-02-17T11:03:20.349Z,100912.53
2023-02-17T11:05:55.919Z,100929.63
2023-02-17T11:08:35.691Z,100918.44
2023-02-17T11:11:06.781Z,100904.81
2023-02-17T11:13:38.237Z,100928.03
2023-02-17T11:16:07.568Z,100930.88
2023-02-17T11:18:40.136Z,100920.28
2023-02-17T11:21:11.254Z,100923.66
2023-02-17T11:23:53.070Z,100915.41
2023-02-17T11:26:25.170Z,100915.00
2023-02-17T11:28:53.777Z,100906.44
2023-02-17T11:31:27.034Z,100915.16
2023-02-17T11:33:57.026Z,100918.31
2023-02-17T11:36:29.132Z,100922.78
2023-02-17T11:39:00.613Z,100921.88
2023-02-17T11:41:39.881Z,100920.06
2023-02-17T11:44:11.016Z,100929.41
2023-02-17T11:46:45.572Z,100935.72
2023-02-17T11:49:41.162Z,100925.13
2023-02-17T11:52:24.193Z,100921.25
2023-02-17T11:55:09.974Z,100918.44
2023-02-17T11:57:42.772Z,100914.25
2023-02-17T12:00:19.012Z,100911.50
2023-02-17T12:03:04.388Z,100879.88
2023-02-17T12:05:41.991Z,100874.69
2023-02-17T12:08:20.670Z,100878.75
2023-02-17T12:11:02.588Z,100884.63
2023-02-17T12:13:43.873Z,100874.59
2023-02-17T12:16:38.678Z,100870.66
2023-02-17T12:19:39.413Z,100878.16
2023-02-17T12:22:18.400Z,100865.78
2023-02-17T12:24:59.145Z,100877.28
2023-02-17T12:27:44.702Z,100873.41
2023-02-17T12:30:27.430Z,100879.50
2023-02-17T12:33:16.650Z,100871.63
2023-02-17T12:35:52.748Z,100874.88
2023-02-17T12:38:26.870Z,100878.53
2023-02-17T12:41:04.026Z,100880.34
2023-02-17T12:43:39.912Z,100887.72
2023-02-17T12:46:13.302Z,100896.25
2023-02-17T12:48:47.814Z,100882.03
2023-02-17T12:51:22.302Z,100886.09
2023-02-17T12:53:55.575Z,100901.53
2023-02-17T12:57:05.976Z,100904.19
2023-02-17T12:59:37.726Z,100907.16
2023-02-17T13:02:11.473Z,100901.78
2023-02-17T13:04:42.610Z,100909.50
2023-02-17T13:07:23.723Z,100905.41
2023-02-17T13:09:54.270Z,100915.47
2023-02-17T13:12:41.456Z,100895.66
2023-02-17T13:15:33.256Z,100889.53
2023-02-17T13:18:03.941Z,100901.03
2023-02-17T13:20:45.582Z,100910.50
2023-02-17T13:23:26.629Z,100908.50
2023-02-17T13:26:07.852Z,100917.75
2023-02-17T13:28:38.686Z,100924.88
2023-02-17T13:31:17.839Z,100927.69
2023-02-17T13:33:49.629Z,100922.72
2023-02-17T13:36:21.710Z,100927.19
2023-02-17T13:39:01.315Z,100942.84
2023-02-17T13:41:34.441Z,100935.03
2023-02-17T13:44:24.847Z,100933.69
2023-02-17T13:46:58.216Z,100946.09
2023-02-17T13:49:28.652Z,100944.91
2023-02-17T13:52:08.591Z,100939.41
2023-02-17T13:54:37.120Z,100955.69
2023-02-17T13:57:05.500Z,100959.13
2023-02-17T13:59:37.018Z,100962.47
2023-02-17T14:02:35.091Z,100961.75
2023-02-17T14:05:17.712Z,100971.31
2023-02-17T14:07:48.488Z,100992.03
2023-02-17T14:10:23.408Z,100992.94
2023-02-17T14:12:52.777Z,100992.44
2023-02-17T14:15:24.182Z,101001.47
2023-02-17T14:17:54.769Z,100999.19
2023-02-17T14:20:32.697Z,100995.81
2023-02-17T14:23:04.941Z,101009.56
2023-02-17T14:25:37.718Z,100994.31
2023-02-17T14:28:19.505Z,101017.00
2023-02-17T14:30:48.519Z,101005.91
2023-02-17T14:33:24.550Z,100993.25
2023-02-17T14:35:55.348Z,101011.97
2023-02-17T14:38:26.288Z,101017.16
2023-02-17T14:40:56.063Z,101031.78
2023-02-17T14:43:25.302Z,101025.38
2023-02-17T14:45:53.833Z,101005.50
2023-02-17T14:48:27.627Z,100997.38
2023-02-17T14:50:57.929Z,101037.94
2023-02-17T14:53:29.092Z,101037.00
2023-02-17T14:56:02.071Z,101032.13
2023-02-17T14:58:32.454Z,101011.72
2023-02-17T15:01:01.378Z,101025.59
2023-02-17T15:03:31.141Z,101028.63
2023-02-17T15:06:01.447Z,101019.66
2023-02-17T15:08:33.178Z,101010.34
2023-02-17T15:11:02.290Z,101028.03
2023-02-17T15:13:33.001Z,101040.97
2023-02-17T15:16:01.442Z,101024.31
2023-02-17T15:18:31.189Z,101024.66
2023-02-17T15:20:59.552Z,101021.16
2023-02-17T15:23:39.137Z,101022.44
2023-02-17T15:26:10.518Z,101030.84
2023-02-17T15:28:39.270Z,101041.78
2023-02-17T15:31:07.896Z,101021.56
2023-02-17T15:33:37.624Z,101038.59
2023-02-17T15:36:07.257Z,101048.03
2023-02-17T15:38:35.786Z,101048.16
2023-02-17T15:41:05.616Z,101055.19
2023-02-17T15:46:15.158Z,101049.97
2023-02-17T15:48:48.391Z,101074.59
2023-02-17T15:51:21.250Z,101069.66
2023-02-17T15:53:54.138Z,101074.47
2023-02-17T15:56:25.754Z,101059.13
2023-02-17T15:58:56.232Z,101062.16
2023-02-17T16:01:29.633Z,101066.38
2023-02-17T16:04:00.407Z,101067.56
2023-02-17T16:06:30.043Z,101072.75
2023-02-17T16:08:59.694Z,101072.44
2023-02-17T16:11:28.816Z,101066.91
2023-02-17T16:13:57.542Z,101077.78
2023-02-17T16:16:32.262Z,101078.84
2023-02-17T16:19:02.991Z,101093.16
2023-02-17T16:21:31.478Z,101086.47
2023-02-17T16:24:00.313Z,101093.69
2023-02-17T16:26:32.855Z,101096.91
2023-02-17T16:29:02.834Z,101120.22
2023-02-17T16:31:35.886Z,101106.38
2023-02-17T16:34:05.944Z,101104.38
2023-02-17T16:36:36.443Z,101113.69
2023-02-17T16:39:12.152Z,101123.25
2023-02-17T16:41:41.088Z,101125.16
2023-02-17T16:44:13.089Z,101129.84
2023-02-17T16:46:47.513Z,101128.78
2023-02-17T16:49:24.755Z,101131.06
2023-02-17T16:51:53.400Z,101135.41
2023-02-17T16:54:21.879Z,101146.94
2023-02-17T16:56:54.318Z,101150.53
2023-02-17T16:59:25.352Z,101154.03
2023-02-17T17:01:54.694Z,101164.47
2023-02-17T17:04:24.540Z,101172.28
2023-02-17T17:06:53.380Z,101171.50
2023-02-17T17:09:26.307Z,101169.66
2023-02-17T17:11:54.855Z,101162.31
2023-02-17T17:14:23.148Z,101170.56
2023-02-17T17:16:55.753Z,101173.41
2023-02-17T17:19:25.830Z,101179.97
2023-02-17T17:21:54.569Z,101188.09
2023-02-17T17:24:22.887Z,101193.81
2023-02-17T17:26:51.585Z,101176.97
2023-02-17T17:29:21.104Z,101188.19
2023-02-17T17:31:49.574Z,101189.88
2023-02-17T17:34:18.061Z,101200.00
2023-02-17T17:36:48.896Z,101198.91
2023-02-17T17:39:20.155Z,101198.44
2023-02-17T17:41:49.031Z,101206.13
2023-02-17T17:44:17.981Z,101203.34
2023-02-17T17:46:46.306Z,101206.00
2023-02-17T17:49:18.522Z,101195.28
2023-02-17T17:51:48.499Z,101217.03
2023-02-17T17:54:16.896Z,101198.44
2023-02-17T17:56:45.340Z,101213.53
2023-02-17T17:59:14.552Z,101203.97
2023-02-17T18:01:45.638Z,101228.94
2023-02-17T18:04:14.596Z,101225.25
2023-02-17T18:06:46.589Z,101221.75
2023-02-17T18:09:30.786Z,101225.00
2023-02-17T18:12:03.848Z,101226.06
2023-02-17T18:14:32.946Z,101226.91
2023-02-17T18:17:11.637Z,101243.09
2023-02-17T18:19:41.261Z,101241.50
2023-02-17T18:22:09.586Z,101246.41
2023-02-17T18:24:40.042Z,101245.88
2023-02-17T18:27:08.581Z,101249.47
2023-02-17T18:29:36.904Z,101239.06
2023-02-17T18:32:05.543Z,101250.88
2023-02-17T18:34:35.046Z,101252.72
2023-02-17T18:37:03.779Z,101251.66
2023-02-17T18:39:32.382Z,101256.56
2023-02-17T18:42:02.448Z,101254.72
2023-02-17T18:44:31.213Z,101253.94
2023-02-17T18:46:59.593Z,101240.78
2023-02-17T18:49:28.134Z,101248.25
2023-02-17T18:51:56.978Z,101247.44
2023-02-17T18:54:25.429Z,101256.75
2023-02-17T18:56:54.182Z,101246.63
2023-02-17T18:59:23.948Z,101249.06
2023-02-17T19:01:52.512Z,101260.50
2023-02-17T19:04:20.858Z,101260.50
2023-02-17T19:06:49.462Z,101283.78
2023-02-17T19:09:18.267Z,101276.09
2023-02-17T19:11:47.052Z,101268.75
2023-02-17T19:14:15.640Z,101269.56
2023-02-17T19:16:45.441Z,101271.44
2023-02-17T19:19:14.238Z,101275.28
2023-02-17T19:21:42.820Z,101275.28
2023-02-17T19:24:11.264Z,101274.81
2023-02-17T19:26:43.122Z,101278.00
2023-02-17T19:29:11.889Z,101282.91
2023-02-17T19:31:40.495Z,101274.16
2023-02-17T19:34:10.488Z,101281.75
2023-02-17T19:36:38.947Z,101286.75
2023-02-17T19:39:07.646Z,101279.38
2023-02-17T19:41:36.227Z,101283.44
2023-02-17T19:44:05.109Z,101280.81
2023-02-17T19:46:33.913Z,101274.31
2023-02-17T19:49:03.932Z,101282.81
2023-02-17T19:51:34.539Z,101274.59
2023-02-17T19:54:03.377Z,101280.91
2023-02-17T19:56:33.835Z,101278.47
2023-02-17T19:59:02.423Z,101280.41
2023-02-17T20:01:32.944Z,101280.97
2023-02-17T20:04:04.305Z,101278.22
2023-02-17T20:06:35.887Z,101277.69
2023-02-17T20:09:06.735Z,101296.41
2023-02-17T20:11:36.197Z,101306.78
2023-02-17T20:14:05.047Z,101321.56
2023-02-17T20:16:33.802Z,101324.28
2023-02-17T20:19:03.297Z,101335.25
2023-02-17T20:21:35.392Z,101335.88
2023-02-17T20:24:04.761Z,101343.59
2023-02-17T20:26:35.349Z,101341.97
2023-02-17T20:29:04.559Z,101337.03
2023-02-17T20:31:33.267Z,101337.63
2023-02-17T20:34:04.023Z,101343.38
2023-02-17T20:36:34.618Z,101343.66
2023-02-17T20:39:03.038Z,101354.03
2023-02-17T20:41:37.424Z,101352.41
2023-02-17T20:44:06.309Z,101356.25
2023-02-17T20:46:34.762Z,101359.78
2023-02-17T20:49:03.349Z,101359.53
2023-02-17T20:51:31.953Z,101362.25
2023-02-17T20:54:01.690Z,101363.09
2023-02-17T20:56:35.071Z,101362.56
2023-02-17T20:59:08.818Z,101372.69
2023-02-17T21:01:37.679Z,101358.75
2023-02-17T21:04:07.844Z,101371.03
2023-02-17T21:06:39.439Z,101373.78
2023-02-17T21:09:13.845Z,101363.94
2023-02-17T21:11:42.930Z,101358.75
2023-02-17T21:14:11.530Z,101362.84
2023-02-17T21:16:40.363Z,101364.19
2023-02-17T21:19:08.927Z,101359.28
2023-02-17T21:21:37.496Z,101365.03
2023-02-17T21:24:06.548Z,101374.31
2023-02-17T21:26:36.265Z,101370.50
2023-02-17T21:29:05.565Z,101374.31
2023-02-17T21:31:34.152Z,101374.31
2023-02-17T21:34:02.811Z,101378.16
2023-02-17T21:36:31.866Z,101365.03
2023-02-17T21:39:00.612Z,101377.31
2023-02-17T21:41:30.249Z,101365.31
2023-02-17T21:44:18.266Z,101365.00
2023-02-17T21:46:47.099Z,101377.59
2023-02-17T21:49:15.809Z,101380.59
2023-02-17T21:51:44.740Z,101381.97
2023-02-17T21:54:13.645Z,101391.25
2023-02-17T21:56:45.136Z,101371.03
2023-02-17T21:59:15.136Z,101377.03
2023-02-17T22:01:43.583Z,101384.94
2023-02-17T22:04:12.290Z,101387.94
2023-02-17T22:06:42.930Z,101398.84
2023-02-17T22:09:14.586Z,101389.28
2023-02-17T22:11:44.015Z,101377.50
2023-02-17T22:14:16.566Z,101381.88
2023-02-17T22:16:46.321Z,101394.69
2023-02-17T22:19:17.519Z,101388.41
2023-02-17T22:21:46.872Z,101395.53
2023-02-17T22:24:15.533Z,101391.41
2023-02-17T22:26:44.501Z,101402.88
2023-02-17T22:29:13.329Z,101402.59
2023-02-17T22:31:43.365Z,101399.88
2023-02-17T22:34:14.823Z,101400.69
2023-02-17T22:36:43.270Z,101397.44
2023-02-17T22:39:11.854Z,101387.06
2023-02-17T22:41:40.779Z,101393.91
2023-02-17T22:44:09.240Z,101393.91
2023-02-17T22:46:37.779Z,101396.38
2023-02-17T22:49:07.586Z,101388.47
2023-02-17T22:51:37.779Z,101390.66
2023-02-17T22:54:07.839Z,101389.88
2023-02-17T22:56:36.708Z,101384.09
2023-02-17T22:59:05.636Z,101376.72
2023-02-17T23:04:30.542Z,101383.31
2023-02-17T23:06:59.074Z,101384.66
2023-02-17T23:09:27.595Z,101383.56
2023-02-17T23:11:58.212Z,101380.59
2023-02-17T23:14:29.535Z,101376.50
2023-02-17T23:17:00.936Z,101375.41
2023-02-17T23:19:31.696Z,101371.03
2023-02-17T23:22:02.216Z,101363.94
2023-02-17T23:24:31.194Z,101361.75
2023-02-17T23:27:03.212Z,101362.59
2023-02-17T23:29:33.161Z,101353.28
2023-02-17T23:32:02.602Z,101366.13
2023-02-17T23:34:32.480Z,101352.47
2023-02-17T23:37:02.565Z,101350.84
2023-02-17T23:39:31.083Z,101349.75
2023-02-17T23:41:59.804Z,101345.38
2023-02-17T23:44:28.393Z,101348.09
2023-02-17T23:46:57.062Z,101347.28
2023-02-17T23:49:25.749Z,101344.56
2023-02-17T23:51:55.605Z,101342.63
2023-02-17T23:54:24.918Z,101344.81
2023-02-17T23:56:53.540Z,101344.81
2023-02-17T23:59:21.996Z,101330.09
